createdAt,value
2023-03-29T00:00:31.351Z,4.50
2023-03-29T00:02:33.482Z,4.52
2023-03-29T00:04:35.720Z,4.53
2023-03-29T00:06:37.775Z,4.51
2023-03-29T00:08:40.041Z,4.53
2023-03-29T00:10:42.200Z,4.53
2023-03-29T00:12:43.631Z,4.48
2023-03-29T00:14:45.202Z,4.44
2023-03-29T00:16:47.076Z,4.39
2023-03-29T00:18:48.666Z,4.35
2023-03-29T00:21:00.157Z,4.32
2023-03-29T00:23:02.018Z,4.27
2023-03-29T00:25:04.311Z,4.29
2023-03-29T00:27:05.946Z,4.22
2023-03-29T00:29:07.321Z,4.21
2023-03-29T00:31:11.913Z,4.23
2023-03-29T00:33:14.705Z,4.20
2023-03-29T00:35:16.608Z,4.22
2023-03-29T00:37:18.853Z,4.18
2023-03-29T00:39:21.092Z,4.18
2023-03-29T00:41:22.569Z,4.19
2023-03-29T00:43:24.187Z,4.20
2023-03-29T00:45:30.255Z,4.19
2023-03-29T00:47:42.239Z,4.21
2023-03-29T00:49:45.993Z,4.24
2023-03-29T00:51:48.172Z,4.24
2023-03-29T00:53:54.590Z,4.27
2023-03-29T00:56:02.438Z,4.30
2023-03-29T00:58:08.652Z,4.31
2023-03-29T01:00:11.934Z,4.33
2023-03-29T01:02:16.137Z,4.34
2023-03-29T01:04:38.279Z,4.33
2023-03-29T01:06:43.344Z,4.35
2023-03-29T01:08:50.972Z,4.37
2023-03-29T01:11:18.483Z,4.39
2023-03-29T01:13:28.056Z,4.38
2023-03-29T01:15:30.365Z,4.43
2023-03-29T01:17:33.152Z,4.44
2023-03-29T01:19:42.249Z,4.44
2023-03-29T01:22:13.492Z,4.46
2023-03-29T01:24:41.943Z,4.47
2023-03-29T01:27:00.526Z,4.48
2023-03-29T01:29:09.687Z,4.46
2023-03-29T01:31:18.495Z,4.50
2023-03-29T01:33:23.767Z,4.52
2023-03-29T01:35:35.699Z,4.52
2023-03-29T01:37:41.248Z,4.55
2023-03-29T01:39:42.820Z,4.56
2023-03-29T01:42:14.367Z,4.56
2023-03-29T01:44:27.081Z,4.57
2023-03-29T01:46:37.611Z,4.57
2023-03-29T01:48:51.466Z,4.58
2023-03-29T01:51:07.642Z,4.59
2023-03-29T01:53:30.134Z,4.59
2023-03-29T01:55:38.400Z,4.59
2023-03-29T01:57:43.894Z,4.59
2023-03-29T01:59:47.406Z,4.60
2023-03-29T02:01:52.969Z,4.59
2023-03-29T02:04:00.376Z,4.60
2023-03-29T02:06:03.554Z,4.60
2023-03-29T02:08:09.169Z,4.62
2023-03-29T02:10:12.163Z,4.64
2023-03-29T02:12:16.739Z,4.63
2023-03-29T02:14:18.195Z,4.64
2023-03-29T02:16:20.393Z,4.67
2023-03-29T02:18:22.166Z,4.65
2023-03-29T02:20:28.844Z,4.68
2023-03-29T02:22:42.098Z,4.69
2023-03-29T02:24:46.469Z,4.69
2023-03-29T02:26:48.736Z,4.68
2023-03-29T02:28:51.575Z,4.71
2023-03-29T02:31:04.657Z,4.72
2023-03-29T02:33:10.891Z,4.71
2023-03-29T02:35:20.621Z,4.73
2023-03-29T02:37:26.544Z,4.74
2023-03-29T02:39:31.681Z,4.76
2023-03-29T02:41:34.675Z,4.78
2023-03-29T02:43:38.069Z,4.79
2023-03-29T02:45:41.081Z,4.84
2023-03-29T02:47:48.521Z,4.84
2023-03-29T02:49:50.377Z,4.85
2023-03-29T02:51:55.973Z,4.86
2023-03-29T02:54:12.701Z,4.91
2023-03-29T02:56:14.378Z,4.92
2023-03-29T02:58:15.925Z,4.91
2023-03-29T03:00:19.659Z,4.93
2023-03-29T03:02:21.398Z,4.95
2023-03-29T03:04:22.818Z,4.96
2023-03-29T03:06:24.263Z,4.97
2023-03-29T03:08:26.147Z,4.97
2023-03-29T03:10:27.790Z,4.97
2023-03-29T03:12:29.354Z,5.00
2023-03-29T03:14:30.768Z,5.02
2023-03-29T03:16:32.318Z,5.02
2023-03-29T03:18:33.926Z,5.00
2023-03-29T03:20:35.857Z,5.04
2023-03-29T03:22:37.223Z,5.05
2023-03-29T03:24:38.684Z,5.08
2023-03-29T03:26:40.077Z,5.06
2023-03-29T03:28:41.978Z,5.09
2023-03-29T03:30:43.848Z,5.10
2023-03-29T03:32:45.331Z,5.12
2023-03-29T03:34:46.713Z,5.12
2023-03-29T03:36:48.114Z,5.14
2023-03-29T03:38:49.610Z,5.15
2023-03-29T03:40:57.251Z,5.16
2023-03-29T03:42:58.663Z,5.16
2023-03-29T03:45:00.111Z,5.16
2023-03-29T03:47:01.504Z,5.18
2023-03-29T03:49:02.948Z,5.19
2023-03-29T03:51:04.824Z,5.22
2023-03-29T03:53:07.309Z,5.24
2023-03-29T03:55:09.303Z,5.26
2023-03-29T03:57:11.018Z,5.28
2023-03-29T03:59:12.567Z,5.28
2023-03-29T04:01:14.096Z,5.30
2023-03-29T04:03:17.159Z,5.30
2023-03-29T04:05:19.872Z,5.32
2023-03-29T04:07:21.270Z,5.33
2023-03-29T04:09:23.335Z,5.34
2023-03-29T04:11:24.735Z,5.37
2023-03-29T04:13:27.068Z,5.35
2023-03-29T04:15:29.307Z,5.37
2023-03-29T04:17:30.897Z,5.39
2023-03-29T04:19:32.488Z,5.42
2023-03-29T04:21:34.400Z,5.43
2023-03-29T04:23:36.470Z,5.43
2023-03-29T04:25:37.843Z,5.46
2023-03-29T04:27:39.944Z,5.49
2023-03-29T04:29:44.705Z,5.51
2023-03-29T04:31:46.258Z,5.53
2023-03-29T04:33:47.777Z,5.56
2023-03-29T04:35:49.192Z,5.57
2023-03-29T04:37:51.470Z,5.57
2023-03-29T04:39:54.330Z,5.59
2023-03-29T04:41:55.901Z,5.59
2023-03-29T04:43:57.257Z,5.61
2023-03-29T04:45:58.710Z,5.61
2023-03-29T04:48:00.158Z,5.63
2023-03-29T04:50:02.229Z,5.63
2023-03-29T04:52:03.654Z,5.63
2023-03-29T04:54:05.199Z,5.63
2023-03-29T04:56:07.958Z,5.65
2023-03-29T04:58:09.985Z,5.64
2023-03-29T05:00:15.133Z,5.66
2023-03-29T05:02:16.981Z,5.66
2023-03-29T05:04:18.413Z,5.68
2023-03-29T05:06:19.852Z,5.67
2023-03-29T05:08:21.631Z,5.65
2023-03-29T05:10:23.522Z,5.67
2023-03-29T05:12:25.181Z,5.69
2023-03-29T05:14:26.743Z,5.70
2023-03-29T05:16:30.173Z,5.71
2023-03-29T05:18:31.855Z,5.69
2023-03-29T05:20:33.296Z,5.71
2023-03-29T05:22:36.222Z,5.73
2023-03-29T05:24:37.621Z,5.75
2023-03-29T05:26:39.950Z,5.73
2023-03-29T05:28:42.056Z,5.77
2023-03-29T05:30:43.501Z,5.79
2023-03-29T05:32:45.039Z,5.79
2023-03-29T05:34:46.464Z,5.82
2023-03-29T05:36:48.972Z,5.81
2023-03-29T05:38:50.720Z,5.83
2023-03-29T05:40:52.837Z,5.86
2023-03-29T05:42:54.210Z,5.85
2023-03-29T05:44:55.621Z,5.86
2023-03-29T05:46:57.258Z,5.89
2023-03-29T05:48:58.670Z,5.89
2023-03-29T05:51:00.245Z,5.91
2023-03-29T05:53:01.960Z,5.89
2023-03-29T05:55:04.257Z,5.92
2023-03-29T05:57:06.134Z,5.95
2023-03-29T05:59:08.455Z,5.96
2023-03-29T06:01:18.716Z,5.96
2023-03-29T06:03:23.726Z,5.99
2023-03-29T06:05:25.971Z,6.00
2023-03-29T06:07:27.347Z,6.02
2023-03-29T06:09:28.750Z,6.02
2023-03-29T06:11:30.511Z,6.06
2023-03-29T06:13:37.121Z,6.09
2023-03-29T06:15:38.537Z,6.13
2023-03-29T06:17:40.335Z,6.18
2023-03-29T06:19:42.107Z,6.19
2023-03-29T06:21:43.497Z,6.20
2023-03-29T06:23:44.999Z,6.25
2023-03-29T06:25:47.092Z,6.32
2023-03-29T06:27:48.534Z,6.35
2023-03-29T06:29:49.898Z,6.42
2023-03-29T06:31:51.649Z,6.48
2023-03-29T06:33:53.263Z,6.48
2023-03-29T06:35:54.864Z,6.48
2023-03-29T06:37:56.270Z,6.48
2023-03-29T06:39:58.005Z,6.53
2023-03-29T06:42:03.497Z,6.56
2023-03-29T06:44:08.902Z,6.57
2023-03-29T06:46:12.348Z,6.60
2023-03-29T06:48:13.903Z,6.64
2023-03-29T06:50:17.210Z,6.63
2023-03-29T06:52:18.619Z,6.64
2023-03-29T06:54:19.989Z,6.71
2023-03-29T06:56:22.243Z,6.77
2023-03-29T06:58:23.689Z,6.77
2023-03-29T07:00:28.499Z,6.81
2023-03-29T07:02:30.530Z,6.83
2023-03-29T07:04:32.263Z,6.91
2023-03-29T07:06:33.883Z,6.97
2023-03-29T07:08:47.365Z,7.04
2023-03-29T07:10:53.208Z,7.08
2023-03-29T07:12:54.893Z,7.13
2023-03-29T07:14:56.295Z,7.13
2023-03-29T07:16:58.435Z,7.22
2023-03-29T07:19:00.155Z,7.22
2023-03-29T07:21:01.696Z,7.23
2023-03-29T07:23:03.293Z,7.36
2023-03-29T07:25:05.739Z,7.39
2023-03-29T07:27:08.659Z,7.47
2023-03-29T07:29:10.084Z,7.44
2023-03-29T07:31:13.332Z,7.45
2023-03-29T07:33:15.025Z,7.51
2023-03-29T07:35:17.735Z,7.47
2023-03-29T07:37:19.307Z,7.55
2023-03-29T07:39:22.995Z,7.56
2023-03-29T07:41:24.386Z,7.66
2023-03-29T07:43:25.773Z,7.66
2023-03-29T07:45:30.875Z,7.72
2023-03-29T07:47:33.028Z,7.72
2023-03-29T07:49:34.479Z,7.73
2023-03-29T07:51:37.032Z,7.75
2023-03-29T07:53:38.447Z,7.78
2023-03-29T07:55:47.555Z,7.79
2023-03-29T07:57:50.190Z,7.91
2023-03-29T07:59:51.748Z,7.97
2023-03-29T08:01:55.238Z,8.08
2023-03-29T08:03:56.848Z,8.19
2023-03-29T08:06:02.058Z,8.21
2023-03-29T08:08:03.554Z,8.27
2023-03-29T08:10:05.556Z,8.29
2023-03-29T08:12:07.553Z,8.34
2023-03-29T08:14:09.052Z,8.45
2023-03-29T08:16:10.510Z,8.50
2023-03-29T08:18:11.924Z,8.49
2023-03-29T08:20:16.176Z,8.48
2023-03-29T08:22:17.929Z,8.59
2023-03-29T08:24:20.990Z,8.54
2023-03-29T08:26:22.541Z,8.65
2023-03-29T08:28:25.005Z,8.72
2023-03-29T08:30:27.022Z,8.97
2023-03-29T08:32:28.567Z,9.05
2023-03-29T08:34:31.712Z,9.11
2023-03-29T08:36:33.241Z,9.14
2023-03-29T08:38:34.624Z,9.28
2023-03-29T08:40:36.657Z,9.32
2023-03-29T08:42:44.925Z,9.23
2023-03-29T08:44:49.307Z,9.23
2023-03-29T08:47:09.583Z,9.49
2023-03-29T08:49:12.600Z,9.60
2023-03-29T08:51:33.384Z,9.60
2023-03-29T08:53:50.066Z,9.86
2023-03-29T08:55:55.666Z,10.04
2023-03-29T08:57:59.175Z,10.02
2023-03-29T09:00:05.437Z,9.98
2023-03-29T09:02:16.707Z,9.92
2023-03-29T09:04:23.153Z,9.77
2023-03-29T09:06:24.737Z,9.72
2023-03-29T09:08:26.703Z,9.71
2023-03-29T09:10:39.524Z,9.67
2023-03-29T09:13:01.724Z,9.69
2023-03-29T09:15:11.632Z,9.62
2023-03-29T09:17:34.371Z,9.65
2023-03-29T09:19:54.139Z,9.68
2023-03-29T09:22:00.300Z,9.73
2023-03-29T09:24:17.111Z,9.76
2023-03-29T09:26:31.091Z,9.89
2023-03-29T09:28:35.372Z,10.07
2023-03-29T09:30:41.635Z,10.11
2023-03-29T09:32:54.885Z,10.14
2023-03-29T09:35:24.304Z,10.17
2023-03-29T09:37:32.622Z,10.15
2023-03-29T09:39:34.155Z,10.12
2023-03-29T09:41:46.512Z,10.05
2023-03-29T09:43:50.782Z,10.11
2023-03-29T09:45:56.295Z,10.13
2023-03-29T09:48:02.590Z,10.29
2023-03-29T09:50:29.601Z,10.36
2023-03-29T09:52:32.347Z,10.62
2023-03-29T09:54:33.904Z,10.74
2023-03-29T09:56:35.608Z,10.96
2023-03-29T09:58:37.373Z,11.04
2023-03-29T10:00:39.840Z,11.24
2023-03-29T10:02:41.801Z,11.17
2023-03-29T10:04:43.200Z,11.32
2023-03-29T10:06:49.433Z,11.51
2023-03-29T10:08:54.926Z,11.44
2023-03-29T10:11:00.723Z,11.61
2023-03-29T10:13:12.141Z,11.59
2023-03-29T10:15:26.715Z,11.63
2023-03-29T10:17:40.200Z,11.67
2023-03-29T10:19:51.806Z,11.63
2023-03-29T10:21:54.997Z,11.67
2023-03-29T10:23:59.428Z,11.90
2023-03-29T10:26:04.290Z,12.08
2023-03-29T10:28:16.095Z,12.04
2023-03-29T10:30:25.952Z,12.01
2023-03-29T10:32:34.265Z,12.03
2023-03-29T10:34:36.285Z,12.05
2023-03-29T10:36:42.062Z,11.95
2023-03-29T10:38:44.603Z,11.95
2023-03-29T10:40:48.760Z,11.73
2023-03-29T10:42:51.897Z,11.90
2023-03-29T10:44:59.055Z,12.05
2023-03-29T10:47:16.283Z,12.26
2023-03-29T10:49:22.841Z,12.36
2023-03-29T10:51:27.659Z,12.44
2023-03-29T10:53:32.574Z,12.62
2023-03-29T10:55:41.383Z,12.80
2023-03-29T10:58:26.369Z,12.99
2023-03-29T11:00:45.391Z,12.96
2023-03-29T11:03:02.350Z,13.30
2023-03-29T11:05:40.999Z,13.29
2023-03-29T11:07:53.519Z,13.31
2023-03-29T11:10:01.494Z,13.37
2023-03-29T11:12:28.000Z,13.39
2023-03-29T11:15:04.781Z,13.35
2023-03-29T11:17:34.079Z,13.36
2023-03-29T11:19:35.452Z,13.42
2023-03-29T11:22:06.845Z,13.75
2023-03-29T11:24:27.868Z,13.92
2023-03-29T11:26:40.352Z,13.97
2023-03-29T11:28:52.977Z,13.90
2023-03-29T11:31:34.833Z,13.95
2023-03-29T11:33:58.510Z,14.19
2023-03-29T11:36:12.550Z,14.43
2023-03-29T11:38:32.788Z,14.35
2023-03-29T11:41:05.510Z,14.29
2023-03-29T11:43:33.760Z,14.47
2023-03-29T11:46:16.885Z,14.11
2023-03-29T11:48:28.529Z,14.38
2023-03-29T11:50:43.631Z,14.58
2023-03-29T11:52:53.232Z,14.73
2023-03-29T11:55:02.682Z,15.01
2023-03-29T11:57:39.851Z,15.06
2023-03-29T11:59:50.206Z,15.32
2023-03-29T12:02:12.164Z,15.22
2023-03-29T12:04:22.868Z,15.39
2023-03-29T12:06:50.557Z,15.55
2023-03-29T12:09:01.208Z,15.86
2023-03-29T12:11:09.818Z,16.09
2023-03-29T12:13:14.421Z,16.18
2023-03-29T12:15:20.328Z,15.87
2023-03-29T12:17:30.721Z,15.90
2023-03-29T12:19:41.004Z,15.92
2023-03-29T12:21:46.100Z,15.82
2023-03-29T12:23:48.452Z,16.12
2023-03-29T12:26:00.394Z,15.90
2023-03-29T12:28:20.613Z,16.04
2023-03-29T12:30:42.675Z,15.65
2023-03-29T12:33:03.488Z,15.72
2023-03-29T12:35:14.041Z,15.71
2023-03-29T12:37:32.189Z,16.02
2023-03-29T12:39:36.050Z,16.04
2023-03-29T12:41:38.349Z,16.17
2023-03-29T12:43:43.393Z,15.74
2023-03-29T12:45:48.530Z,15.87
2023-03-29T12:47:51.495Z,16.15
2023-03-29T12:49:56.513Z,16.21
2023-03-29T12:51:59.978Z,16.27
2023-03-29T12:54:17.716Z,16.29
2023-03-29T12:56:24.089Z,16.24
2023-03-29T12:58:43.671Z,16.00
2023-03-29T13:00:45.555Z,16.20
2023-03-29T13:03:00.156Z,16.24
2023-03-29T13:05:01.998Z,16.07
2023-03-29T13:07:04.872Z,16.07
2023-03-29T13:09:29.895Z,15.72
2023-03-29T13:11:40.723Z,15.75
2023-03-29T13:13:43.510Z,15.61
2023-03-29T13:15:46.108Z,15.41
2023-03-29T13:17:56.243Z,15.32
2023-03-29T13:20:19.257Z,15.41
2023-03-29T13:22:23.722Z,15.32
2023-03-29T13:24:54.091Z,15.13
2023-03-29T13:27:39.637Z,15.01
2023-03-29T13:29:49.223Z,14.92
2023-03-29T13:31:59.645Z,14.79
2023-03-29T13:34:14.260Z,14.80
2023-03-29T13:36:37.597Z,14.55
2023-03-29T13:38:54.054Z,14.65
2023-03-29T13:41:07.179Z,14.97
2023-03-29T13:43:18.526Z,15.11
2023-03-29T13:45:22.973Z,15.56
2023-03-29T13:47:37.013Z,15.76
2023-03-29T13:49:42.338Z,16.28
2023-03-29T13:52:02.303Z,16.57
2023-03-29T13:54:09.401Z,16.61
2023-03-29T13:56:17.775Z,16.60
2023-03-29T13:58:38.137Z,16.62
2023-03-29T14:00:52.049Z,16.78
2023-03-29T14:02:56.660Z,16.88
2023-03-29T14:05:01.853Z,16.74
2023-03-29T14:07:06.118Z,16.65
2023-03-29T14:09:08.955Z,16.27
2023-03-29T14:11:24.575Z,15.97
2023-03-29T14:13:27.127Z,15.89
2023-03-29T14:15:43.695Z,16.02
2023-03-29T14:17:45.163Z,16.07
2023-03-29T14:19:47.860Z,16.05
2023-03-29T14:21:52.012Z,15.90
2023-03-29T14:26:33.066Z,16.35
2023-03-29T14:28:34.491Z,16.70
2023-03-29T14:30:36.032Z,16.89
2023-03-29T14:32:39.160Z,16.91
2023-03-29T14:34:40.706Z,17.14
2023-03-29T14:36:45.616Z,16.79
2023-03-29T14:38:59.437Z,16.64
2023-03-29T14:41:02.516Z,16.68
2023-03-29T14:43:07.911Z,16.74
2023-03-29T14:45:13.461Z,16.80
2023-03-29T14:47:36.290Z,16.76
2023-03-29T14:49:37.766Z,16.70
2023-03-29T14:51:40.384Z,16.81
2023-03-29T14:53:42.480Z,16.82
2023-03-29T14:55:48.127Z,16.94
2023-03-29T14:57:56.152Z,16.85
2023-03-29T15:00:08.033Z,16.73
2023-03-29T15:02:23.224Z,16.60
2023-03-29T15:04:32.190Z,16.52
2023-03-29T15:06:39.398Z,16.37
2023-03-29T15:08:48.221Z,16.30
2023-03-29T15:10:59.677Z,16.19
2023-03-29T15:13:03.706Z,16.18
2023-03-29T15:15:07.633Z,16.31
2023-03-29T15:17:50.415Z,16.47
2023-03-29T15:19:59.011Z,16.54
2023-03-29T15:22:05.944Z,16.71
2023-03-29T15:24:21.158Z,17.34
2023-03-29T15:26:32.580Z,17.96
2023-03-29T15:28:35.522Z,18.41
2023-03-29T15:30:46.260Z,18.15
2023-03-29T15:32:52.971Z,17.82
2023-03-29T15:34:59.424Z,17.96
2023-03-29T15:37:02.324Z,17.56
2023-03-29T15:39:03.754Z,17.25
2023-03-29T15:41:06.461Z,17.31
2023-03-29T15:43:08.025Z,16.95
2023-03-29T15:45:17.697Z,16.96
2023-03-29T15:47:19.109Z,16.70
2023-03-29T15:49:21.124Z,16.61
2023-03-29T15:51:22.542Z,16.37
2023-03-29T15:53:23.951Z,16.30
2023-03-29T15:55:29.446Z,16.16
2023-03-29T15:57:31.257Z,16.09
2023-03-29T15:59:33.529Z,16.01
2023-03-29T16:01:37.584Z,15.94
2023-03-29T16:03:39.870Z,15.91
2023-03-29T16:05:45.522Z,15.81
2023-03-29T16:07:46.925Z,15.80
2023-03-29T16:09:48.356Z,15.79
2023-03-29T16:11:50.229Z,15.72
2023-03-29T16:13:51.740Z,15.71
2023-03-29T16:15:53.233Z,15.67
2023-03-29T16:17:54.673Z,15.58
2023-03-29T16:19:56.093Z,15.55
2023-03-29T16:21:58.822Z,15.52
2023-03-29T16:24:00.286Z,15.46
2023-03-29T16:26:01.947Z,15.37
2023-03-29T16:28:04.840Z,15.39
2023-03-29T16:30:07.064Z,15.27
2023-03-29T16:32:10.468Z,15.16
2023-03-29T16:34:13.133Z,15.19
2023-03-29T16:36:14.613Z,15.17
2023-03-29T16:38:16.033Z,15.15
2023-03-29T16:40:17.584Z,15.11
2023-03-29T16:42:19.041Z,15.07
2023-03-29T16:44:23.841Z,15.03
2023-03-29T16:46:26.570Z,15.00
2023-03-29T16:48:28.201Z,15.00
2023-03-29T16:50:29.658Z,14.96
2023-03-29T16:52:32.309Z,14.92
2023-03-29T16:54:33.810Z,14.92
2023-03-29T16:56:36.749Z,14.87
2023-03-29T16:58:42.478Z,14.81
2023-03-29T17:00:47.240Z,14.76
2023-03-29T17:02:49.706Z,14.73
2023-03-29T17:04:51.460Z,14.68
2023-03-29T17:06:53.484Z,14.65
2023-03-29T17:08:54.987Z,14.61
2023-03-29T17:10:56.402Z,14.62
2023-03-29T17:12:58.022Z,14.59
2023-03-29T17:14:59.568Z,14.53
2023-03-29T17:17:00.959Z,14.52
2023-03-29T17:19:02.483Z,14.51
2023-03-29T17:21:04.189Z,14.45
2023-03-29T17:23:05.662Z,14.45
2023-03-29T17:25:08.950Z,14.41
2023-03-29T17:27:10.355Z,14.42
2023-03-29T17:29:11.846Z,14.39
2023-03-29T17:31:13.351Z,14.30
2023-03-29T17:33:14.969Z,14.32
2023-03-29T17:35:16.436Z,14.28
2023-03-29T17:37:17.845Z,14.27
2023-03-29T17:39:19.447Z,14.23
2023-03-29T17:41:21.360Z,14.19
2023-03-29T17:43:23.130Z,14.21
2023-03-29T17:45:24.545Z,14.11
2023-03-29T17:47:26.051Z,14.11
2023-03-29T17:49:27.632Z,14.13
2023-03-29T17:51:29.021Z,14.11
2023-03-29T17:53:30.596Z,14.07
2023-03-29T17:55:32.020Z,14.05
2023-03-29T17:57:33.457Z,14.02
2023-03-29T17:59:36.857Z,14.04
2023-03-29T18:01:39.389Z,14.04
2023-03-29T18:03:41.723Z,14.00
2023-03-29T18:05:43.245Z,13.97
2023-03-29T18:07:44.629Z,13.92
2023-03-29T18:09:46.147Z,13.95
2023-03-29T18:11:47.623Z,13.91
2023-03-29T18:13:50.414Z,13.90
2023-03-29T18:15:56.459Z,13.88
2023-03-29T18:17:57.970Z,13.88
2023-03-29T18:19:59.795Z,13.87
2023-03-29T18:22:03.327Z,13.86
2023-03-29T18:24:04.918Z,13.79
2023-03-29T18:26:07.329Z,13.80
2023-03-29T18:28:09.098Z,13.81
2023-03-29T18:30:13.124Z,13.76
2023-03-29T18:32:14.791Z,13.78
2023-03-29T18:34:16.315Z,13.75
2023-03-29T18:36:17.756Z,13.72
2023-03-29T18:38:21.182Z,13.70
2023-03-29T18:40:25.677Z,13.68
2023-03-29T18:42:27.250Z,13.64
2023-03-29T18:44:29.196Z,13.60
2023-03-29T18:46:31.666Z,13.54
2023-03-29T18:48:39.057Z,13.53
2023-03-29T18:50:44.819Z,13.52
2023-03-29T18:52:46.233Z,13.47
2023-03-29T18:54:47.594Z,13.46
2023-03-29T18:56:49.114Z,13.45
2023-03-29T18:58:50.681Z,13.40
2023-03-29T19:00:52.150Z,13.40
2023-03-29T19:02:53.745Z,13.40
2023-03-29T19:04:55.282Z,13.40
2023-03-29T19:06:56.742Z,13.40
2023-03-29T19:09:01.827Z,13.38
2023-03-29T19:11:05.834Z,13.34
2023-03-29T19:13:07.374Z,13.28
2023-03-29T19:15:09.719Z,13.29
2023-03-29T19:17:11.205Z,13.24
2023-03-29T19:19:12.842Z,13.15
2023-03-29T19:21:14.406Z,13.14
2023-03-29T19:23:15.842Z,13.14
2023-03-29T19:25:17.384Z,13.16
2023-03-29T19:27:19.076Z,13.14
2023-03-29T19:29:20.659Z,13.07
2023-03-29T19:31:22.490Z,13.10
2023-03-29T19:33:24.011Z,13.09
2023-03-29T19:35:25.522Z,13.11
2023-03-29T19:37:27.021Z,13.05
2023-03-29T19:39:29.759Z,13.05
2023-03-29T19:41:31.558Z,13.05
2023-03-29T19:43:34.016Z,13.04
2023-03-29T19:45:36.249Z,13.04
2023-03-29T19:47:37.706Z,13.01
2023-03-29T19:49:39.381Z,13.05
2023-03-29T19:51:42.030Z,13.10
2023-03-29T19:53:43.523Z,13.04
2023-03-29T19:55:45.162Z,12.99
2023-03-29T19:57:46.907Z,12.96
2023-03-29T19:59:48.313Z,12.98
2023-03-29T20:01:52.582Z,13.00
2023-03-29T20:03:54.304Z,12.95
2023-03-29T20:05:56.583Z,12.93
2023-03-29T20:07:58.001Z,12.92
2023-03-29T20:09:59.366Z,12.91
2023-03-29T20:12:00.795Z,12.89
2023-03-29T20:14:02.162Z,12.82
2023-03-29T20:16:04.095Z,12.79
2023-03-29T20:18:05.931Z,12.81
2023-03-29T20:20:09.794Z,12.76
2023-03-29T20:22:12.016Z,12.74
2023-03-29T20:24:13.435Z,12.73
2023-03-29T20:26:15.327Z,12.70
2023-03-29T20:28:17.208Z,12.68
2023-03-29T20:30:18.933Z,12.68
2023-03-29T20:32:20.492Z,12.67
2023-03-29T20:34:22.357Z,12.70
2023-03-29T20:36:23.916Z,12.67
2023-03-29T20:38:25.489Z,12.69
2023-03-29T20:40:28.687Z,12.69
2023-03-29T20:42:34.228Z,12.68
2023-03-29T20:44:35.636Z,12.66
2023-03-29T20:46:38.013Z,12.61
2023-03-29T20:48:45.911Z,12.61
2023-03-29T20:50:48.300Z,12.57
2023-03-29T20:52:49.696Z,12.53
2023-03-29T20:54:51.262Z,12.52
2023-03-29T20:56:54.661Z,12.55
2023-03-29T20:58:57.214Z,12.59
2023-03-29T21:00:58.883Z,12.50
2023-03-29T21:03:00.529Z,12.45
2023-03-29T21:05:02.253Z,12.41
2023-03-29T21:07:05.610Z,12.43
2023-03-29T21:09:07.188Z,12.43
2023-03-29T21:11:12.985Z,12.36
2023-03-29T21:13:14.436Z,12.34
2023-03-29T21:15:17.787Z,12.34
2023-03-29T21:17:19.369Z,12.30
2023-03-29T21:19:21.135Z,12.31
2023-03-29T21:21:25.494Z,12.28
2023-03-29T21:23:27.007Z,12.24
2023-03-29T21:25:28.474Z,12.20
2023-03-29T21:27:29.834Z,12.19
2023-03-29T21:29:31.234Z,12.16
2023-03-29T21:31:32.730Z,12.16
2023-03-29T21:33:35.396Z,12.19
2023-03-29T21:35:37.020Z,12.13
2023-03-29T21:37:38.710Z,12.14
2023-03-29T21:39:40.527Z,12.15
2023-03-29T21:41:41.960Z,12.14
2023-03-29T21:43:43.738Z,12.19
2023-03-29T21:45:49.782Z,12.19
2023-03-29T21:47:51.291Z,12.19
2023-03-29T21:49:52.764Z,12.22
2023-03-29T21:51:54.216Z,12.22
2023-03-29T21:53:55.631Z,12.21
2023-03-29T21:55:57.091Z,12.21
2023-03-29T21:57:58.465Z,12.15
2023-03-29T21:59:59.871Z,12.20
2023-03-29T22:02:01.563Z,12.20
2023-03-29T22:04:04.084Z,12.15
2023-03-29T22:06:10.946Z,12.17
2023-03-29T22:08:12.356Z,12.15
2023-03-29T22:10:13.826Z,12.18
2023-03-29T22:12:15.218Z,12.11
2023-03-29T22:14:16.645Z,12.13
2023-03-29T22:16:18.305Z,12.08
2023-03-29T22:18:20.696Z,12.09
2023-03-29T22:20:22.720Z,12.10
2023-03-29T22:22:24.431Z,12.09
2023-03-29T22:24:25.878Z,12.04
2023-03-29T22:26:29.832Z,12.07
2023-03-29T22:28:31.646Z,12.06
2023-03-29T22:30:33.054Z,12.02
2023-03-29T22:32:34.646Z,12.04
2023-03-29T22:34:36.205Z,12.05
2023-03-29T22:36:37.827Z,12.08
2023-03-29T22:38:39.284Z,12.17
2023-03-29T22:40:40.711Z,12.16
2023-03-29T22:42:42.090Z,12.19
2023-03-29T22:44:43.500Z,12.16
2023-03-29T22:46:44.957Z,12.14
2023-03-29T22:48:46.906Z,12.12
2023-03-29T22:50:48.504Z,12.14
2023-03-29T22:52:51.103Z,12.09
2023-03-29T22:54:52.548Z,12.07
2023-03-29T22:56:54.101Z,12.06
2023-03-29T22:58:55.569Z,12.01
2023-03-29T23:00:57.722Z,12.01
2023-03-29T23:02:59.307Z,11.96
2023-03-29T23:05:00.731Z,11.92
2023-03-29T23:07:02.214Z,11.83
2023-03-29T23:09:03.857Z,11.79
2023-03-29T23:11:05.543Z,11.70
2023-03-29T23:13:10.236Z,11.69
2023-03-29T23:15:12.095Z,11.68
2023-03-29T23:17:13.545Z,11.73
2023-03-29T23:19:14.914Z,11.64
2023-03-29T23:21:16.639Z,11.58
2023-03-29T23:23:19.877Z,11.56
2023-03-29T23:25:21.254Z,11.51
2023-03-29T23:27:22.674Z,11.55
2023-03-29T23:29:26.210Z,11.58
2023-03-29T23:31:27.639Z,11.42
2023-03-29T23:33:33.142Z,11.33
2023-03-29T23:35:34.549Z,11.27
2023-03-29T23:37:36.094Z,11.31
2023-03-29T23:39:37.609Z,11.25
2023-03-29T23:41:40.131Z,11.17
2023-03-29T23:43:43.278Z,11.15
2023-03-29T23:45:45.329Z,11.20
2023-03-29T23:47:47.341Z,11.16
2023-03-29T23:49:48.712Z,11.14
2023-03-29T23:51:50.442Z,11.06
2023-03-29T23:53:52.160Z,11.03
2023-03-29T23:55:56.143Z,11.06
2023-03-29T23:57:57.686Z,11.10
